createdAt,value
2018-12-26T00:00:50.118Z,98.91
2018-12-26T00:01:50.787Z,98.49
2018-12-26T00:02:50.126Z,98.80
2018-12-26T00:03:50.131Z,98.80
2018-12-26T00:04:50.070Z,98.80
2018-12-26T00:05:50.113Z,98.69
2018-12-26T00:06:50.074Z,98.49
2018-12-26T00:07:50.037Z,98.38
2018-12-26T00:08:50.028Z,98.28
2018-12-26T00:09:50.056Z,98.64
2018-12-26T00:10:50.019Z,98.64
2018-12-26T00:11:50.043Z,98.64
2018-12-26T00:12:49.981Z,98.43
2018-12-26T00:13:49.970Z,98.69
2018-12-26T00:14:49.959Z,98.28
2018-12-26T00:15:50.002Z,98.38
2018-12-26T00:16:49.966Z,98.49
2018-12-26T00:17:49.928Z,98.38
2018-12-26T00:18:49.919Z,98.95
2018-12-26T00:19:49.958Z,98.85
2018-12-26T00:20:49.900Z,99.05
2018-12-26T00:21:49.948Z,98.85
2018-12-26T00:22:49.897Z,99.16
2018-12-26T00:23:49.877Z,98.74
2018-12-26T00:24:49.871Z,98.53
2018-12-26T00:25:49.842Z,98.53
2018-12-26T00:26:49.828Z,98.36
2018-12-26T00:27:49.852Z,98.00
2018-12-26T00:28:49.812Z,98.16
2018-12-26T00:29:49.843Z,98.26
2018-12-26T00:30:49.790Z,97.74
2018-12-26T00:31:49.787Z,98.36
2018-12-26T00:32:49.774Z,97.94
2018-12-26T00:33:49.789Z,98.36
2018-12-26T00:34:49.759Z,98.36
2018-12-26T00:35:49.738Z,98.16
2018-12-26T00:36:49.727Z,98.36
2018-12-26T00:37:49.729Z,97.94
2018-12-26T00:38:49.724Z,97.94
2018-12-26T00:39:49.739Z,97.84
2018-12-26T00:40:49.710Z,98.05
2018-12-26T00:41:49.670Z,97.88
2018-12-26T00:42:49.701Z,98.20
2018-12-26T00:43:49.665Z,97.88
2018-12-26T00:44:49.634Z,98.20
2018-12-26T00:45:49.677Z,98.10
2018-12-26T00:46:49.622Z,97.78
2018-12-26T00:47:49.652Z,98.14
2018-12-26T00:48:49.605Z,97.99
2018-12-26T00:49:49.589Z,97.99
2018-12-26T00:50:49.589Z,97.67
2018-12-26T00:51:49.603Z,98.20
2018-12-26T00:52:49.578Z,97.88
2018-12-26T00:53:49.555Z,97.99
2018-12-26T00:54:49.529Z,98.56
2018-12-26T00:55:49.521Z,98.24
2018-12-26T00:56:49.521Z,98.24
2018-12-26T00:57:49.557Z,98.10
2018-12-26T00:58:49.490Z,97.99
2018-12-26T00:59:49.484Z,98.24
2018-12-26T01:00:49.466Z,97.93
2018-12-26T01:01:49.474Z,97.88
2018-12-26T01:02:49.442Z,98.03
2018-12-26T01:03:49.561Z,98.03
2018-12-26T01:04:49.442Z,97.72
2018-12-26T01:05:49.447Z,98.03
2018-12-26T01:06:49.404Z,98.14
2018-12-26T01:07:49.393Z,98.14
2018-12-26T01:08:49.387Z,98.46
2018-12-26T01:09:49.420Z,98.35
2018-12-26T01:10:49.366Z,98.24
2018-12-26T01:11:49.359Z,97.82
2018-12-26T01:12:49.342Z,98.77
2018-12-26T01:13:49.348Z,98.60
2018-12-26T01:14:49.343Z,98.66
2018-12-26T01:15:49.354Z,98.56
2018-12-26T01:16:49.292Z,98.98
2018-12-26T01:17:49.284Z,99.30
2018-12-26T01:18:49.295Z,99.30
2018-12-26T01:19:49.263Z,99.40
2018-12-26T01:20:49.276Z,99.44
2018-12-26T01:21:49.294Z,98.88
2018-12-26T01:22:49.233Z,99.02
2018-12-26T01:23:49.220Z,98.88
2018-12-26T01:24:49.206Z,98.88
2018-12-26T01:25:49.216Z,98.82
2018-12-26T01:26:49.194Z,98.98
2018-12-26T01:27:49.208Z,98.71
2018-12-26T01:28:49.240Z,98.60
2018-12-26T01:29:49.159Z,98.71
2018-12-26T01:30:49.149Z,99.13
2018-12-26T01:31:49.131Z,98.50
2018-12-26T01:32:49.141Z,99.34
2018-12-26T01:33:49.185Z,99.24
2018-12-26T01:34:49.109Z,99.76
2018-12-26T01:35:49.098Z,98.92
2018-12-26T01:36:49.091Z,99.51
2018-12-26T01:37:49.085Z,99.72
2018-12-26T01:38:49.081Z,99.30
2018-12-26T01:39:49.084Z,99.40
2018-12-26T01:40:49.043Z,99.44
2018-12-26T01:41:49.053Z,99.61
2018-12-26T01:42:49.028Z,99.61
2018-12-26T01:43:49.042Z,99.19
2018-12-26T01:44:48.996Z,99.40
2018-12-26T01:45:49.021Z,99.72
2018-12-26T01:46:49.015Z,99.08
2018-12-26T01:47:48.969Z,99.30
2018-12-26T01:48:48.969Z,99.44
2018-12-26T01:49:48.944Z,99.40
2018-12-26T01:50:48.952Z,99.55
2018-12-26T01:51:48.950Z,99.44
2018-12-26T01:52:48.911Z,99.34
2018-12-26T01:53:48.920Z,99.55
2018-12-26T01:54:48.892Z,99.34
2018-12-26T01:55:48.877Z,99.55
2018-12-26T01:56:48.874Z,99.44
2018-12-26T01:57:48.902Z,99.40
2018-12-26T01:58:48.860Z,99.51
2018-12-26T01:59:48.838Z,99.19
2018-12-26T02:00:48.831Z,99.66
2018-12-26T02:01:48.815Z,99.40
2018-12-26T02:02:48.813Z,99.34
2018-12-26T02:03:48.821Z,99.76
2018-12-26T02:04:48.785Z,99.55
2018-12-26T02:05:48.772Z,99.51
2018-12-26T02:06:48.779Z,99.55
2018-12-26T02:07:48.754Z,99.19
2018-12-26T02:08:48.757Z,99.40
2018-12-26T02:09:48.768Z,99.40
2018-12-26T02:10:48.724Z,98.77
2018-12-26T02:11:48.722Z,98.66
2018-12-26T02:12:48.700Z,98.66
2018-12-26T02:13:48.709Z,99.19
2018-12-26T02:14:48.684Z,99.08
2018-12-26T02:15:48.699Z,99.19
2018-12-26T02:16:48.668Z,98.98
2018-12-26T02:17:48.653Z,99.30
2018-12-26T02:18:48.654Z,99.30
2018-12-26T02:19:48.622Z,98.98
2018-12-26T02:20:48.628Z,98.98
2018-12-26T02:21:48.641Z,98.98
2018-12-26T02:22:48.609Z,99.19
2018-12-26T02:23:48.610Z,99.19
2018-12-26T02:24:48.573Z,98.66
2018-12-26T02:25:48.574Z,98.77
2018-12-26T02:26:48.552Z,98.62
2018-12-26T02:27:48.585Z,98.62
2018-12-26T02:28:48.588Z,98.30
2018-12-26T02:29:48.518Z,97.93
2018-12-26T02:30:48.518Z,97.93
2018-12-26T02:31:48.503Z,98.10
2018-12-26T02:32:48.505Z,98.14
2018-12-26T02:33:48.507Z,97.93
2018-12-26T02:34:48.487Z,98.14
2018-12-26T02:35:48.458Z,98.14
2018-12-26T02:36:48.453Z,98.14
2018-12-26T02:37:48.449Z,98.20
2018-12-26T02:38:48.432Z,97.99
2018-12-26T02:39:48.453Z,98.20
2018-12-26T02:40:48.416Z,97.93
2018-12-26T02:41:48.416Z,98.20
2018-12-26T02:42:48.383Z,98.20
2018-12-26T02:43:48.377Z,97.78
2018-12-26T02:44:48.379Z,98.24
2018-12-26T02:45:48.375Z,98.20
2018-12-26T02:46:48.342Z,98.30
2018-12-26T02:47:48.328Z,97.88
2018-12-26T02:48:48.345Z,97.78
2018-12-26T02:49:48.317Z,98.05
2018-12-26T02:50:48.298Z,97.42
2018-12-26T02:51:48.318Z,97.78
2018-12-26T02:52:48.272Z,97.31
2018-12-26T02:53:48.288Z,97.11
2018-12-26T02:54:48.272Z,97.25
2018-12-26T02:55:48.244Z,96.58
2018-12-26T02:56:49.162Z,96.51
2018-12-26T02:57:48.263Z,96.62
2018-12-26T02:58:48.213Z,97.00
2018-12-26T02:59:48.221Z,97.36
2018-12-26T03:00:48.186Z,96.89
2018-12-26T03:01:48.187Z,97.00
2018-12-26T03:02:48.181Z,97.21
2018-12-26T03:03:48.201Z,97.00
2018-12-26T03:04:48.152Z,97.00
2018-12-26T03:05:48.134Z,96.37
2018-12-26T03:06:48.131Z,97.05
2018-12-26T03:07:48.117Z,96.62
2018-12-26T03:08:48.121Z,96.62
2018-12-26T03:09:48.244Z,97.15
2018-12-26T03:10:48.089Z,97.36
2018-12-26T03:11:48.071Z,97.57
2018-12-26T03:12:48.090Z,97.36
2018-12-26T03:13:48.062Z,97.47
2018-12-26T03:14:48.040Z,97.67
2018-12-26T03:15:48.089Z,97.47
2018-12-26T03:16:48.023Z,97.57
2018-12-26T03:17:48.040Z,97.47
2018-12-26T03:18:48.015Z,97.88
2018-12-26T03:19:47.987Z,98.10
2018-12-26T03:20:47.976Z,98.10
2018-12-26T03:21:47.999Z,97.57
2018-12-26T03:22:47.956Z,97.47
2018-12-26T03:23:47.960Z,97.78
2018-12-26T03:24:47.958Z,97.78
2018-12-26T03:25:47.921Z,97.78
2018-12-26T03:26:55.977Z,97.67
2018-12-26T03:27:48.934Z,98.10
2018-12-26T03:28:47.909Z,97.30
2018-12-26T03:29:47.881Z,97.19
2018-12-26T03:30:47.873Z,96.67
2018-12-26T03:31:47.912Z,96.98
2018-12-26T03:32:47.850Z,97.51
2018-12-26T03:33:47.883Z,97.93
2018-12-26T03:34:47.837Z,97.72
2018-12-26T03:35:47.819Z,97.51
2018-12-26T03:36:47.810Z,97.78
2018-12-26T03:37:47.801Z,97.36
2018-12-26T03:38:47.799Z,97.09
2018-12-26T03:39:47.818Z,97.19
2018-12-26T03:40:47.765Z,97.30
2018-12-26T03:41:47.754Z,96.56
2018-12-26T03:42:47.744Z,96.50
2018-12-26T03:43:47.743Z,96.71
2018-12-26T03:44:47.715Z,96.77
2018-12-26T03:45:47.761Z,96.71
2018-12-26T03:46:47.697Z,96.61
2018-12-26T03:47:47.701Z,96.56
2018-12-26T03:48:47.684Z,96.92
2018-12-26T03:49:47.688Z,96.71
2018-12-26T03:50:47.653Z,96.81
2018-12-26T03:51:47.713Z,96.61
2018-12-26T03:52:47.632Z,96.61
2018-12-26T03:53:47.625Z,96.92
2018-12-26T03:54:47.620Z,96.81
2018-12-26T03:55:47.605Z,96.97
2018-12-26T03:56:47.591Z,96.97
2018-12-26T03:57:47.684Z,96.81
2018-12-26T03:58:47.570Z,96.50
2018-12-26T03:59:47.572Z,96.81
2018-12-26T04:00:47.558Z,96.50
2018-12-26T04:01:47.551Z,97.13
2018-12-26T04:02:47.529Z,96.92
2018-12-26T04:03:47.562Z,97.24
2018-12-26T04:04:47.530Z,97.28
2018-12-26T04:05:47.520Z,97.55
2018-12-26T04:06:47.488Z,97.87
2018-12-26T04:07:47.488Z,97.87
2018-12-26T04:08:47.487Z,97.76
2018-12-26T04:09:47.484Z,97.55
2018-12-26T04:10:47.457Z,97.91
2018-12-26T04:11:47.435Z,97.97
2018-12-26T04:12:47.439Z,97.66
2018-12-26T04:13:47.411Z,97.81
2018-12-26T04:14:47.423Z,98.08
2018-12-26T04:15:47.435Z,97.97
2018-12-26T04:16:47.380Z,98.02
2018-12-26T04:17:47.375Z,98.29
2018-12-26T04:18:47.359Z,97.97
2018-12-26T04:19:47.347Z,98.50
2018-12-26T04:20:47.397Z,98.50
2018-12-26T04:21:47.354Z,98.08
2018-12-26T04:22:47.317Z,98.03
2018-12-26T04:23:47.306Z,97.82
2018-12-26T04:24:47.299Z,98.03
2018-12-26T04:25:47.398Z,97.55
2018-12-26T04:26:47.277Z,97.51
2018-12-26T04:27:47.324Z,98.08
2018-12-26T04:28:47.253Z,98.14
2018-12-26T04:29:47.242Z,98.14
2018-12-26T04:30:47.244Z,97.82
2018-12-26T04:31:47.217Z,98.03
2018-12-26T04:32:47.214Z,97.09
2018-12-26T04:33:47.325Z,96.83
2018-12-26T04:34:47.220Z,96.88
2018-12-26T04:35:47.181Z,96.73
2018-12-26T04:36:47.165Z,96.88
2018-12-26T04:37:47.157Z,96.88
2018-12-26T04:38:47.149Z,96.98
2018-12-26T04:39:47.166Z,96.94
2018-12-26T04:40:47.156Z,96.41
2018-12-26T04:41:47.117Z,96.77
2018-12-26T04:42:47.105Z,96.94
2018-12-26T04:43:47.090Z,96.83
2018-12-26T04:44:47.101Z,96.31
2018-12-26T04:45:47.115Z,96.51
2018-12-26T04:46:47.055Z,96.31
2018-12-26T04:47:47.050Z,96.31
2018-12-26T04:48:47.040Z,96.31
2018-12-26T04:49:47.031Z,96.31
2018-12-26T04:50:47.038Z,96.31
2018-12-26T04:51:47.043Z,96.31
2018-12-26T04:52:47.011Z,96.31
2018-12-26T04:53:47.002Z,96.41
2018-12-26T04:54:46.993Z,96.83
2018-12-26T04:55:46.974Z,95.89
2018-12-26T04:56:46.959Z,95.99
2018-12-26T04:57:46.986Z,95.78
2018-12-26T04:58:46.929Z,95.89
2018-12-26T04:59:46.938Z,95.99
2018-12-26T05:00:46.933Z,96.20
2018-12-26T05:01:46.912Z,96.83
2018-12-26T05:02:46.903Z,96.77
2018-12-26T05:03:46.918Z,95.89
2018-12-26T05:04:46.878Z,95.93
2018-12-26T05:05:46.871Z,96.03
2018-12-26T05:06:46.879Z,96.03
2018-12-26T05:07:46.840Z,95.83
2018-12-26T05:08:46.850Z,95.62
2018-12-26T05:09:46.846Z,96.56
2018-12-26T05:10:46.805Z,96.35
2018-12-26T05:11:46.812Z,96.25
2018-12-26T05:12:46.798Z,96.19
2018-12-26T05:13:46.787Z,97.09
2018-12-26T05:14:46.765Z,97.09
2018-12-26T05:15:46.815Z,96.98
2018-12-26T05:16:46.755Z,96.88
2018-12-26T05:17:46.738Z,96.67
2018-12-26T05:18:46.719Z,96.77
2018-12-26T05:19:46.708Z,96.77
2018-12-26T05:20:46.698Z,96.67
2018-12-26T05:21:46.732Z,97.03
2018-12-26T05:22:46.687Z,96.81
2018-12-26T05:23:46.665Z,96.88
2018-12-26T05:24:46.661Z,96.92
2018-12-26T05:25:46.650Z,96.45
2018-12-26T05:26:46.640Z,96.61
2018-12-26T05:27:46.674Z,96.88
2018-12-26T05:28:46.612Z,96.71
2018-12-26T05:29:46.616Z,96.35
2018-12-26T05:30:46.612Z,96.39
2018-12-26T05:31:46.583Z,96.98
2018-12-26T05:32:46.578Z,96.98
2018-12-26T05:33:46.601Z,96.56
2018-12-26T05:34:46.547Z,96.61
2018-12-26T05:35:46.547Z,96.88
2018-12-26T05:36:46.554Z,96.77
2018-12-26T05:37:46.528Z,96.77
2018-12-26T05:38:46.505Z,96.67
2018-12-26T05:39:46.534Z,96.67
2018-12-26T05:40:46.488Z,96.45
2018-12-26T05:41:46.478Z,96.88
2018-12-26T05:42:46.472Z,97.09
2018-12-26T05:43:46.466Z,96.45
2018-12-26T05:44:46.439Z,96.45
2018-12-26T05:45:46.458Z,96.10
2018-12-26T05:46:46.430Z,95.89
2018-12-26T05:47:46.416Z,95.36
2018-12-26T05:48:46.409Z,95.93
2018-12-26T05:49:46.386Z,95.47
2018-12-26T05:50:46.375Z,95.40
2018-12-26T05:51:46.407Z,95.62
2018-12-26T05:52:46.369Z,95.68
2018-12-26T05:53:46.362Z,95.36
2018-12-26T05:54:46.360Z,95.09
2018-12-26T05:55:46.324Z,95.57
2018-12-26T05:56:46.313Z,95.72
2018-12-26T05:57:46.352Z,96.20
2018-12-26T05:58:46.295Z,95.78
2018-12-26T05:59:46.297Z,95.99
2018-12-26T06:00:46.271Z,95.99
2018-12-26T06:01:46.261Z,95.89
2018-12-26T06:02:46.260Z,96.10
2018-12-26T06:03:46.270Z,95.68
2018-12-26T06:04:46.252Z,96.03
2018-12-26T06:05:46.223Z,96.03
2018-12-26T06:06:46.208Z,96.77
2018-12-26T06:07:46.201Z,96.45
2018-12-26T06:08:46.196Z,96.56
2018-12-26T06:09:46.230Z,96.41
2018-12-26T06:10:46.171Z,96.25
2018-12-26T06:11:46.169Z,96.31
2018-12-26T06:12:46.145Z,96.56
2018-12-26T06:13:46.200Z,96.45
2018-12-26T06:14:46.127Z,96.56
2018-12-26T06:15:46.158Z,96.56
2018-12-26T06:16:46.115Z,96.25
2018-12-26T06:17:46.094Z,95.83
2018-12-26T06:18:46.080Z,95.99
2018-12-26T06:19:46.069Z,95.99
2018-12-26T06:20:46.058Z,95.78
2018-12-26T06:21:46.086Z,95.99
2018-12-26T06:22:46.060Z,96.14
2018-12-26T06:23:46.023Z,96.10
2018-12-26T06:24:46.018Z,96.20
2018-12-26T06:25:46.014Z,95.93
2018-12-26T06:26:46.004Z,95.57
2018-12-26T06:27:51.374Z,95.47
2018-12-26T06:28:46.998Z,95.40
2018-12-26T06:29:45.970Z,95.26
2018-12-26T06:30:45.955Z,95.62
2018-12-26T06:31:45.942Z,95.36
2018-12-26T06:32:45.935Z,95.68
2018-12-26T06:33:45.966Z,95.36
2018-12-26T06:34:45.921Z,95.36
2018-12-26T06:35:45.901Z,95.26
2018-12-26T06:36:45.894Z,95.26
2018-12-26T06:37:45.889Z,95.04
2018-12-26T06:38:45.873Z,94.94
2018-12-26T06:39:45.897Z,95.26
2018-12-26T06:40:45.922Z,94.94
2018-12-26T06:41:45.835Z,95.26
2018-12-26T06:42:45.836Z,95.15
2018-12-26T06:43:45.825Z,95.26
2018-12-26T06:44:45.821Z,95.26
2018-12-26T06:45:45.828Z,95.15
2018-12-26T06:46:45.785Z,95.26
2018-12-26T06:47:45.774Z,95.04
2018-12-26T06:48:45.771Z,95.15
2018-12-26T06:49:45.770Z,95.04
2018-12-26T06:50:45.764Z,95.15
2018-12-26T06:51:45.772Z,94.73
2018-12-26T06:52:45.716Z,94.94
2018-12-26T06:53:45.727Z,95.15
2018-12-26T06:54:45.700Z,95.36
2018-12-26T06:55:45.687Z,95.15
2018-12-26T06:56:45.673Z,94.88
2018-12-26T06:57:45.695Z,95.04
2018-12-26T06:58:45.660Z,95.04
2018-12-26T06:59:45.647Z,95.15
2018-12-26T07:00:45.691Z,95.26
2018-12-26T07:01:45.650Z,95.26
2018-12-26T07:02:45.610Z,94.94
2018-12-26T07:03:46.713Z,95.26
2018-12-26T07:04:45.590Z,95.36
2018-12-26T07:05:45.582Z,95.78
2018-12-26T07:06:45.583Z,95.20
2018-12-26T07:07:45.569Z,95.15
2018-12-26T07:08:45.553Z,95.68
2018-12-26T07:09:45.583Z,95.57
2018-12-26T07:10:45.543Z,95.26
2018-12-26T07:11:45.526Z,95.36
2018-12-26T07:12:45.512Z,95.26
2018-12-26T07:13:45.518Z,95.26
2018-12-26T07:14:45.485Z,95.68
2018-12-26T07:15:45.518Z,95.30
2018-12-26T07:16:45.459Z,95.62
2018-12-26T07:17:45.451Z,95.20
2018-12-26T07:18:45.446Z,95.51
2018-12-26T07:19:45.433Z,95.40
2018-12-26T07:20:45.444Z,95.40
2018-12-26T07:21:45.453Z,95.51
2018-12-26T07:22:45.398Z,95.72
2018-12-26T07:23:45.411Z,95.40
2018-12-26T07:24:45.389Z,95.40
2018-12-26T07:25:45.381Z,95.20
2018-12-26T07:26:45.351Z,95.40
2018-12-26T07:27:45.412Z,95.20
2018-12-26T07:28:45.338Z,95.30
2018-12-26T07:29:45.340Z,95.72
2018-12-26T07:30:45.327Z,95.62
2018-12-26T07:31:45.305Z,95.40
2018-12-26T07:32:45.290Z,95.20
2018-12-26T07:33:45.370Z,95.76
2018-12-26T07:34:45.416Z,95.34
2018-12-26T07:35:45.322Z,95.55
2018-12-26T07:36:45.267Z,95.62
2018-12-26T07:37:45.299Z,95.93
2018-12-26T07:38:45.226Z,95.66
2018-12-26T07:39:45.247Z,95.66
2018-12-26T07:40:45.207Z,95.97
2018-12-26T07:41:45.196Z,96.19
2018-12-26T07:42:45.186Z,96.08
2018-12-26T07:43:45.178Z,95.87
2018-12-26T07:44:45.187Z,96.19
2018-12-26T07:45:45.188Z,96.08
2018-12-26T07:46:45.141Z,96.19
2018-12-26T07:47:45.133Z,95.55
2018-12-26T07:48:45.124Z,96.56
2018-12-26T07:49:45.130Z,96.39
2018-12-26T07:50:45.104Z,96.45
2018-12-26T07:51:45.134Z,96.39
2018-12-26T07:52:45.076Z,96.03
2018-12-26T07:53:45.064Z,96.08
2018-12-26T07:54:45.091Z,95.93
2018-12-26T07:55:45.045Z,96.35
2018-12-26T07:56:45.037Z,96.25
2018-12-26T07:57:45.071Z,96.25
2018-12-26T07:58:45.021Z,96.03
2018-12-26T07:59:45.027Z,96.08
2018-12-26T08:00:45.000Z,96.14
2018-12-26T08:01:44.988Z,96.03
2018-12-26T08:02:44.983Z,96.19
2018-12-26T08:03:45.038Z,96.03
2018-12-26T08:04:44.967Z,96.08
2018-12-26T08:05:44.946Z,96.25
2018-12-26T08:06:44.943Z,96.03
2018-12-26T08:07:44.934Z,96.77
2018-12-26T08:08:44.925Z,96.35
2018-12-26T08:09:44.925Z,96.35
2018-12-26T08:10:44.886Z,96.25
2018-12-26T08:11:44.896Z,96.45
2018-12-26T08:12:44.903Z,96.25
2018-12-26T08:13:44.859Z,95.72
2018-12-26T08:14:44.858Z,96.56
2018-12-26T08:15:44.871Z,96.35
2018-12-26T08:16:44.839Z,96.03
2018-12-26T08:17:44.811Z,96.03
2018-12-26T08:18:44.803Z,95.83
2018-12-26T08:19:44.801Z,95.72
2018-12-26T08:20:44.797Z,95.57
2018-12-26T08:21:44.816Z,95.99
2018-12-26T08:22:44.757Z,96.14
2018-12-26T08:23:44.773Z,95.99
2018-12-26T08:24:44.745Z,96.20
2018-12-26T08:25:44.762Z,95.89
2018-12-26T08:26:44.719Z,95.57
2018-12-26T08:27:44.739Z,95.47
2018-12-26T08:28:44.704Z,95.47
2018-12-26T08:29:44.719Z,95.36
2018-12-26T08:30:44.674Z,95.42
2018-12-26T08:31:44.680Z,95.32
2018-12-26T08:32:44.648Z,95.21
2018-12-26T08:33:44.679Z,95.32
2018-12-26T08:34:44.635Z,95.21
2018-12-26T08:35:44.618Z,95.10
2018-12-26T08:36:44.628Z,95.42
2018-12-26T08:37:44.615Z,95.32
2018-12-26T08:38:44.644Z,95.42
2018-12-26T08:39:44.644Z,95.38
2018-12-26T08:40:44.575Z,95.48
2018-12-26T08:41:44.563Z,95.48
2018-12-26T08:42:44.552Z,95.17
2018-12-26T08:43:44.537Z,95.23
2018-12-26T08:44:44.522Z,95.23
2018-12-26T08:45:44.545Z,94.67
2018-12-26T08:46:44.518Z,95.19
2018-12-26T08:47:44.496Z,94.67
2018-12-26T08:48:44.496Z,94.24
2018-12-26T08:49:44.475Z,94.20
2018-12-26T08:50:44.486Z,94.10
2018-12-26T08:51:44.493Z,93.99
2018-12-26T08:52:44.447Z,93.36
2018-12-26T08:53:44.439Z,93.53
2018-12-26T08:54:44.416Z,93.95
2018-12-26T08:55:44.418Z,93.74
2018-12-26T08:56:44.394Z,93.84
2018-12-26T08:57:44.447Z,93.43
2018-12-26T08:58:44.671Z,93.38
2018-12-26T08:59:44.363Z,93.21
2018-12-26T09:00:44.367Z,92.76
2018-12-26T09:01:44.338Z,92.54
2018-12-26T09:02:44.339Z,92.44
2018-12-26T09:03:44.374Z,92.23
2018-12-26T09:04:44.328Z,91.87
2018-12-26T09:05:44.323Z,92.33
2018-12-26T09:06:44.290Z,91.91
2018-12-26T09:07:44.281Z,91.56
2018-12-26T09:08:44.274Z,91.35
2018-12-26T09:09:44.317Z,91.24
2018-12-26T09:10:44.251Z,91.24
2018-12-26T09:11:44.242Z,91.14
2018-12-26T09:12:44.224Z,91.35
2018-12-26T09:13:44.231Z,91.35
2018-12-26T09:14:44.198Z,91.35
2018-12-26T09:15:44.277Z,91.52
2018-12-26T09:16:44.180Z,91.56
2018-12-26T09:17:44.176Z,91.35
2018-12-26T09:18:44.187Z,91.62
2018-12-26T09:19:44.228Z,91.41
2018-12-26T09:20:44.133Z,91.31
2018-12-26T09:21:44.160Z,91.31
2018-12-26T09:22:44.129Z,91.20
2018-12-26T09:23:44.107Z,91.16
2018-12-26T09:24:44.099Z,91.16
2018-12-26T09:25:44.102Z,91.27
2018-12-26T09:26:44.069Z,90.91
2018-12-26T09:27:44.087Z,91.37
2018-12-26T09:28:44.197Z,90.49
2018-12-26T09:29:44.033Z,90.28
2018-12-26T09:30:44.032Z,89.76
2018-12-26T09:31:44.021Z,90.34
2018-12-26T09:32:44.022Z,89.86
2018-12-26T09:33:44.035Z,89.55
2018-12-26T09:34:43.985Z,89.09
2018-12-26T09:35:43.975Z,89.51
2018-12-26T09:36:43.983Z,89.40
2018-12-26T09:37:44.010Z,89.40
2018-12-26T09:38:43.941Z,89.26
2018-12-26T09:39:43.969Z,89.47
2018-12-26T09:40:43.922Z,89.68
2018-12-26T09:41:43.939Z,89.68
2018-12-26T09:42:43.917Z,89.53
2018-12-26T09:43:43.891Z,89.53
2018-12-26T09:44:43.940Z,89.43
2018-12-26T09:45:43.914Z,90.78
2018-12-26T09:46:43.857Z,91.06
2018-12-26T09:47:43.854Z,90.95
2018-12-26T09:48:43.840Z,91.16
2018-12-26T09:49:43.826Z,91.12
2018-12-26T09:50:43.831Z,91.16
2018-12-26T09:51:43.839Z,91.47
2018-12-26T09:52:43.835Z,91.22
2018-12-26T09:53:43.775Z,91.12
2018-12-26T09:54:43.768Z,91.12
2018-12-26T09:55:43.761Z,90.91
2018-12-26T09:56:43.792Z,90.70
2018-12-26T09:57:43.778Z,90.81
2018-12-26T09:58:52.280Z,90.91
2018-12-26T09:59:44.780Z,91.02
2018-12-26T10:00:43.707Z,91.12
2018-12-26T10:01:43.715Z,91.12
2018-12-26T10:02:43.688Z,90.97
2018-12-26T10:03:43.716Z,90.97
2018-12-26T10:04:43.660Z,90.66
2018-12-26T10:05:43.726Z,90.03
2018-12-26T10:06:43.638Z,89.72
2018-12-26T10:07:43.634Z,89.93
2018-12-26T10:08:43.613Z,89.62
2018-12-26T10:09:43.659Z,89.72
2018-12-26T10:10:43.609Z,88.89
2018-12-26T10:11:43.583Z,88.68
2018-12-26T10:12:43.594Z,87.95
2018-12-26T10:13:43.555Z,88.06
2018-12-26T10:14:43.549Z,88.12
2018-12-26T10:15:43.574Z,87.43
2018-12-26T10:16:43.530Z,87.28
2018-12-26T10:17:43.517Z,87.18
2018-12-26T10:18:43.504Z,87.28
2018-12-26T10:19:43.503Z,86.38
2018-12-26T10:20:43.483Z,85.97
2018-12-26T10:21:43.505Z,86.35
2018-12-26T10:22:43.489Z,87.18
2018-12-26T10:23:43.451Z,87.70
2018-12-26T10:24:43.443Z,87.70
2018-12-26T10:25:43.431Z,88.22
2018-12-26T10:26:43.435Z,87.81
2018-12-26T10:27:43.444Z,87.84
2018-12-26T10:28:43.399Z,88.43
2018-12-26T10:29:43.402Z,89.37
2018-12-26T10:30:43.415Z,89.26
2018-12-26T10:31:43.386Z,89.31
2018-12-26T10:32:43.355Z,89.37
2018-12-26T10:33:43.396Z,89.58
2018-12-26T10:34:43.340Z,89.37
2018-12-26T10:35:43.343Z,89.37
2018-12-26T10:36:43.307Z,88.95
2018-12-26T10:37:43.301Z,89.26
2018-12-26T10:38:43.290Z,88.75
2018-12-26T10:39:43.327Z,89.43
2018-12-26T10:40:43.265Z,89.22
2018-12-26T10:41:43.259Z,88.08
2018-12-26T10:42:43.253Z,88.60
2018-12-26T10:43:43.253Z,89.54
2018-12-26T10:44:43.236Z,89.75
2018-12-26T10:45:43.261Z,88.70
2018-12-26T10:46:43.202Z,88.18
2018-12-26T10:47:43.205Z,88.60
2018-12-26T10:48:43.201Z,88.35
2018-12-26T10:49:43.190Z,88.04
2018-12-26T10:50:43.159Z,87.52
2018-12-26T10:51:43.179Z,87.30
2018-12-26T10:52:43.138Z,87.10
2018-12-26T10:53:43.130Z,87.10
2018-12-26T10:54:43.121Z,86.85
2018-12-26T10:55:43.100Z,86.33
2018-12-26T10:56:43.089Z,86.22
2018-12-26T10:57:43.136Z,85.91
2018-12-26T10:58:43.094Z,86.33
2018-12-26T10:59:43.063Z,86.33
2018-12-26T11:00:43.047Z,86.65
2018-12-26T11:01:43.036Z,86.81
2018-12-26T11:02:43.037Z,86.65
2018-12-26T11:03:43.070Z,86.75
2018-12-26T11:04:43.023Z,86.19
2018-12-26T11:05:42.994Z,86.22
2018-12-26T11:06:42.992Z,86.54
2018-12-26T11:07:42.988Z,86.33
2018-12-26T11:08:42.999Z,86.43
2018-12-26T11:09:43.021Z,86.75
2018-12-26T11:10:42.950Z,86.65
2018-12-26T11:11:43.009Z,86.33
2018-12-26T11:12:42.928Z,86.08
2018-12-26T11:13:42.909Z,86.29
2018-12-26T11:14:42.894Z,86.81
2018-12-26T11:15:42.923Z,86.29
2018-12-26T11:16:42.892Z,85.98
2018-12-26T11:17:42.868Z,86.08
2018-12-26T11:18:42.851Z,85.77
2018-12-26T11:19:42.842Z,85.77
2018-12-26T11:20:42.859Z,85.56
2018-12-26T11:21:42.896Z,85.88
2018-12-26T11:22:42.814Z,85.46
2018-12-26T11:23:42.811Z,85.67
2018-12-26T11:24:42.823Z,85.56
2018-12-26T11:25:42.787Z,86.29
2018-12-26T11:26:42.770Z,86.71
2018-12-26T11:27:42.795Z,86.71
2018-12-26T11:28:42.741Z,86.71
2018-12-26T11:29:42.746Z,86.29
2018-12-26T11:30:42.727Z,86.29
2018-12-26T11:31:42.726Z,85.56
2018-12-26T11:32:42.706Z,85.77
2018-12-26T11:33:42.733Z,85.88
2018-12-26T11:34:42.696Z,85.14
2018-12-26T11:35:42.667Z,84.73
2018-12-26T11:36:42.660Z,85.46
2018-12-26T11:37:42.658Z,85.14
2018-12-26T11:38:42.648Z,85.14
2018-12-26T11:39:42.654Z,84.42
2018-12-26T11:40:42.611Z,84.21
2018-12-26T11:41:42.618Z,84.94
2018-12-26T11:42:42.596Z,84.94
2018-12-26T11:43:42.599Z,84.80
2018-12-26T11:44:42.574Z,84.69
2018-12-26T11:45:42.611Z,84.48
2018-12-26T11:46:42.549Z,84.17
2018-12-26T11:47:42.538Z,84.52
2018-12-26T11:48:42.536Z,84.06
2018-12-26T11:49:42.516Z,84.59
2018-12-26T11:50:42.504Z,84.48
2018-12-26T11:51:51.166Z,84.69
2018-12-26T11:52:42.478Z,84.75
2018-12-26T11:53:42.468Z,84.44
2018-12-26T11:54:42.457Z,83.61
2018-12-26T11:55:42.448Z,84.03
2018-12-26T11:56:42.437Z,83.72
2018-12-26T11:57:42.464Z,83.20
2018-12-26T11:58:42.440Z,84.03
2018-12-26T11:59:42.409Z,83.82
2018-12-26T12:00:42.396Z,83.61
2018-12-26T12:01:42.487Z,83.92
2018-12-26T12:02:42.386Z,83.40
2018-12-26T12:03:42.412Z,83.92
2018-12-26T12:04:42.347Z,83.72
2018-12-26T12:05:42.345Z,83.92
2018-12-26T12:06:42.336Z,83.72
2018-12-26T12:07:42.324Z,83.51
2018-12-26T12:08:42.308Z,84.23
2018-12-26T12:09:42.363Z,83.78
2018-12-26T12:10:42.281Z,84.09
2018-12-26T12:11:42.287Z,84.09
2018-12-26T12:12:42.288Z,83.78
2018-12-26T12:13:42.248Z,84.09
2018-12-26T12:14:42.247Z,83.16
2018-12-26T12:15:42.273Z,83.05
2018-12-26T12:16:42.219Z,83.26
2018-12-26T12:17:42.266Z,82.84
2018-12-26T12:18:42.216Z,82.43
2018-12-26T12:19:42.197Z,82.50
2018-12-26T12:20:42.198Z,82.22
2018-12-26T12:21:42.207Z,82.18
2018-12-26T12:22:42.149Z,82.29
2018-12-26T12:23:42.141Z,82.29
2018-12-26T12:24:42.158Z,82.08
2018-12-26T12:25:42.115Z,82.18
2018-12-26T12:26:42.104Z,82.18
2018-12-26T12:27:42.136Z,82.50
2018-12-26T12:28:42.087Z,82.18
2018-12-26T12:29:42.073Z,82.29
2018-12-26T12:30:42.058Z,82.46
2018-12-26T12:31:42.053Z,81.98
2018-12-26T12:32:42.046Z,82.39
2018-12-26T12:33:42.067Z,82.39
2018-12-26T12:34:42.025Z,81.87
2018-12-26T12:35:42.007Z,81.67
2018-12-26T12:36:42.001Z,81.52
2018-12-26T12:37:42.003Z,81.32
2018-12-26T12:38:42.011Z,80.80
2018-12-26T12:39:42.012Z,79.97
2018-12-26T12:40:41.955Z,80.18
2018-12-26T12:41:41.940Z,79.86
2018-12-26T12:42:41.960Z,80.49
2018-12-26T12:43:41.960Z,80.69
2018-12-26T12:44:41.912Z,80.80
2018-12-26T12:45:41.936Z,81.46
2018-12-26T12:46:41.921Z,81.42
2018-12-26T12:47:41.904Z,80.80
2018-12-26T12:48:41.863Z,80.80
2018-12-26T12:49:41.866Z,80.07
2018-12-26T12:50:41.840Z,80.49
2018-12-26T12:51:41.867Z,80.80
2018-12-26T12:52:41.826Z,80.80